Roscoe, MN (56371)

1:24 AM CST on December 19, 2014 (GMT -0600)
Paynesville | Change Station
CLOSE
Current Station
Airport
Location: Paynesville,
Elevation: 1181 ft
Nearby Weather Stations

Elev 1181 ft 45.37 °N, 94.74 °W | Updated 10 minutes ago

Overcast
Overcast
18 °F
Feels Like 8 °F
N
8
Wind Variable Wind from East

Today
High -- | Low -- °F
--% Chance of Precip.
Yesterday
High -- | Low -- °F
Precip. -- in
7:54 AM 4:37 PM
Waning Crescent, 9% visible
Pressure 30.22 in
Visibility 7.0 miles
Clouds Overcast 3000 ft
Windchill 8 °F
Dew Point 16 °F
Humidity 93%
Rainfall 0.00 in
Snow Depth Not available.
UV 0 out of 12
Pollen .10 out of 12
Air Quality Not available.
Flu Activity Not available.
METAR KPEX 190714Z AUTO 10007KT 7SM -SN OVC030 M08/M09 A3022 RMK AO2 T10781088

More Conditions Fewer Conditions

Pressure 30.22 in
Visibility 7.0 miles
Clouds Overcast 3000 ft
Windchill 8 °F
Dew Point 16 °F
Humidity 93%
Rainfall 0.00 in
Snow Depth Not available.
UV 0 out of 12
Pollen .10 out of 12
Air Quality Not available.
Flu Activity Not available.
METAR KPEX 190714Z AUTO 10007KT 7SM -SN OVC030 M08/M09 A3022 RMK AO2 T10781088

More Conditions Fewer Conditions

10-Day Weather Forecast

Almanac

Astronomy

Dec. 19, 2014 Rise Set
Actual Time
Civil Twilight
Nautical Twilight
Astronomical Twilight
Moon
Length of Visible Light
Length of Day
Tomorrow will be .
, % of the Moon is Illuminated

Today's Extremes

State Highs State Lows

Community

WunderPhotos

Upload Photos

1,778,952 photos uploaded!

WunderBlogs® & News

Nearby

Air Quality

  Air Quality AQ Index Pollutant
Not available.

Snow Depth

Station Depth Elevation

Earthquake Activity

City Distance Mag. Time & Date
Minimum magnitude displayed is 2.5.

Coastal Water Temperatures

Place Temperature

Nearby Weather Stations